createdAt,value
2022-12-04T00:01:15.612Z,1.90
2022-12-04T00:04:00.494Z,1.77
2022-12-04T00:06:43.467Z,1.65
2022-12-04T00:09:26.373Z,1.08
2022-12-04T00:12:09.405Z,2.72
2022-12-04T00:15:24.025Z,1.98
2022-12-04T00:17:56.528Z,1.98
2022-12-04T00:20:40.339Z,2.38
2022-12-04T00:23:23.268Z,1.58
2022-12-04T00:26:07.799Z,1.27
2022-12-04T00:31:35.368Z,2.63
2022-12-04T00:37:01.443Z,2.92
2022-12-04T00:39:44.649Z,2.92
2022-12-04T00:42:27.553Z,2.15
2022-12-04T00:45:11.020Z,3.28
2022-12-04T00:47:55.312Z,1.33
2022-12-04T00:50:38.801Z,1.25
2022-12-04T00:53:22.371Z,2.47
2022-12-04T00:56:06.786Z,3.28
2022-12-04T00:58:52.249Z,1.10
2022-12-04T01:01:35.163Z,0.93
2022-12-04T01:04:19.431Z,2.22
2022-12-04T01:07:05.135Z,1.63
2022-12-04T01:09:48.374Z,5.07
2022-12-04T01:12:31.330Z,2.15
2022-12-04T01:15:14.355Z,1.58
2022-12-04T01:17:57.417Z,1.15
2022-12-04T01:20:42.051Z,1.10
2022-12-04T01:23:24.929Z,1.30
2022-12-04T01:26:08.117Z,1.23
2022-12-04T01:28:50.989Z,1.38
2022-12-04T01:31:34.414Z,2.10
2022-12-04T01:34:17.293Z,1.23
2022-12-04T01:37:01.494Z,1.00
2022-12-04T01:39:44.357Z,1.42
2022-12-04T01:42:28.119Z,2.65
2022-12-04T01:45:35.639Z,1.53
2022-12-04T01:48:27.559Z,1.60
2022-12-04T01:51:17.829Z,0.98
2022-12-04T01:54:06.069Z,1.40
2022-12-04T01:56:53.605Z,5.07
2022-12-04T01:59:41.120Z,1.38
2022-12-04T02:02:28.550Z,1.20
2022-12-04T02:05:14.769Z,1.33
2022-12-04T02:08:01.423Z,3.30
2022-12-04T02:10:56.669Z,1.10
2022-12-04T02:13:46.971Z,0.93
2022-12-04T02:16:37.875Z,1.10
2022-12-04T02:19:43.906Z,0.60
2022-12-04T02:22:42.676Z,1.38
2022-12-04T02:25:31.106Z,1.17
2022-12-04T02:28:24.381Z,0.98
2022-12-04T02:31:13.399Z,1.05
2022-12-04T02:34:02.566Z,0.88
2022-12-04T02:36:51.933Z,1.25
2022-12-04T02:39:41.275Z,0.95
2022-12-04T02:42:34.046Z,1.20
2022-12-04T02:45:22.760Z,0.90
2022-12-04T02:48:08.718Z,0.82
2022-12-04T02:50:57.190Z,0.88
2022-12-04T02:53:45.936Z,0.82
2022-12-04T02:56:33.341Z,1.50
2022-12-04T02:59:20.266Z,1.23
2022-12-04T03:02:10.546Z,1.88
2022-12-04T03:04:57.376Z,1.10
2022-12-04T03:07:45.975Z,1.90
2022-12-04T03:10:33.885Z,1.00
2022-12-04T03:13:21.396Z,1.00
2022-12-04T03:16:11.432Z,1.52
2022-12-04T03:19:00.016Z,1.20
2022-12-04T03:21:48.970Z,1.20
2022-12-04T03:24:35.501Z,1.67
2022-12-04T03:27:27.144Z,2.35
2022-12-04T03:30:12.618Z,0.85
2022-12-04T03:33:02.412Z,1.20
2022-12-04T03:35:50.612Z,0.98
2022-12-04T03:38:38.906Z,0.90
2022-12-04T03:41:28.174Z,1.10
2022-12-04T03:44:17.232Z,1.08
2022-12-04T03:47:05.230Z,0.80
2022-12-04T03:49:55.016Z,0.80
2022-12-04T03:52:49.669Z,0.93
2022-12-04T03:55:39.937Z,1.20
2022-12-04T03:58:28.273Z,1.42
2022-12-04T04:01:14.389Z,0.90
2022-12-04T04:04:01.020Z,1.52
2022-12-04T04:06:49.967Z,1.23
2022-12-04T04:09:38.313Z,0.82
2022-12-04T04:12:23.584Z,1.17
2022-12-04T04:15:28.547Z,0.63
2022-12-04T04:18:28.732Z,0.80
2022-12-04T04:21:31.682Z,0.93
2022-12-04T04:24:28.972Z,0.68
2022-12-04T04:27:13.591Z,0.63
2022-12-04T04:32:43.902Z,1.00
2022-12-04T04:35:38.185Z,0.68
2022-12-04T04:38:27.263Z,1.27
2022-12-04T04:41:17.267Z,1.00
2022-12-04T04:44:10.753Z,0.60
2022-12-04T04:46:58.668Z,0.80
2022-12-04T04:49:43.173Z,1.27
2022-12-04T04:52:26.528Z,1.98
2022-12-04T04:55:10.534Z,0.95
2022-12-04T04:57:53.374Z,1.27
2022-12-04T05:00:38.451Z,0.90
2022-12-04T05:03:21.308Z,1.27
2022-12-04T05:06:04.660Z,1.30
2022-12-04T05:08:49.283Z,0.93
2022-12-04T05:14:14.810Z,0.90
2022-12-04T05:17:01.844Z,1.65
2022-12-04T05:19:57.885Z,1.55
2022-12-04T05:22:40.940Z,1.42
2022-12-04T05:25:23.834Z,0.90
2022-12-04T05:28:06.909Z,1.60
2022-12-04T05:30:56.103Z,1.40
2022-12-04T05:33:40.396Z,1.77
2022-12-04T05:36:23.261Z,1.63
2022-12-04T05:39:06.167Z,1.60
2022-12-04T05:41:49.050Z,2.13
2022-12-04T05:44:31.908Z,1.30
2022-12-04T05:47:14.749Z,1.20
2022-12-04T05:49:59.150Z,1.38
2022-12-04T05:52:42.041Z,1.50
2022-12-04T05:55:24.851Z,2.33
2022-12-04T05:58:07.786Z,1.45
2022-12-04T06:00:50.681Z,1.75
2022-12-04T06:03:33.592Z,1.70
2022-12-04T06:06:22.284Z,2.42
2022-12-04T06:09:06.950Z,1.83
2022-12-04T06:11:49.781Z,1.83
2022-12-04T06:14:39.157Z,2.42
2022-12-04T06:17:22.556Z,1.95
2022-12-04T06:20:11.230Z,2.33
2022-12-04T06:22:56.059Z,1.90
2022-12-04T06:25:38.941Z,2.00
2022-12-04T06:28:21.808Z,1.88
2022-12-04T06:31:06.215Z,1.50
2022-12-04T06:33:49.521Z,2.47
2022-12-04T06:36:32.612Z,2.00
2022-12-04T06:39:18.987Z,2.25
2022-12-04T06:42:02.028Z,2.95
2022-12-04T06:44:44.951Z,2.55
2022-12-04T06:47:27.798Z,3.10
2022-12-04T06:50:11.229Z,3.85
2022-12-04T06:52:54.057Z,4.07
2022-12-04T06:55:38.268Z,2.30
2022-12-04T06:58:21.105Z,2.47
2022-12-04T07:01:08.209Z,3.10
2022-12-04T07:03:52.036Z,2.90
2022-12-04T07:06:36.569Z,3.47
2022-12-04T07:09:19.820Z,2.72
2022-12-04T07:12:04.010Z,2.60
2022-12-04T07:14:46.862Z,2.83
2022-12-04T07:17:29.755Z,3.55
2022-12-04T07:20:13.571Z,2.35
2022-12-04T07:22:56.548Z,1.97
2022-12-04T07:25:40.971Z,2.35
2022-12-04T07:28:25.169Z,2.53
2022-12-04T07:31:09.389Z,2.58
2022-12-04T07:33:53.957Z,3.47
2022-12-04T07:36:36.890Z,3.35
2022-12-04T07:39:19.743Z,2.47
2022-12-04T07:42:02.692Z,3.42
2022-12-04T07:44:48.622Z,4.28
2022-12-04T07:47:31.457Z,3.22
2022-12-04T07:50:14.311Z,2.40
2022-12-04T07:52:57.141Z,1.95
2022-12-04T07:55:40.150Z,4.30
2022-12-04T07:58:22.952Z,2.58
2022-12-04T08:01:09.122Z,2.20
2022-12-04T08:03:53.501Z,2.63
2022-12-04T08:06:36.442Z,2.22
2022-12-04T08:09:19.285Z,2.08
2022-12-04T08:12:02.082Z,2.00
2022-12-04T08:14:44.969Z,1.95
2022-12-04T08:17:29.431Z,2.53
2022-12-04T08:20:13.205Z,3.25
2022-12-04T08:22:56.067Z,2.03
2022-12-04T08:25:40.231Z,1.80
2022-12-04T08:28:23.070Z,1.90
2022-12-04T08:31:07.472Z,2.05
2022-12-04T08:33:53.434Z,2.42
2022-12-04T08:36:36.609Z,1.90
2022-12-04T08:39:19.552Z,1.90
2022-12-04T08:42:02.389Z,2.33
2022-12-04T08:44:45.232Z,2.15
2022-12-04T08:47:28.044Z,2.17
2022-12-04T08:50:12.848Z,2.20
2022-12-04T08:52:55.707Z,2.35
2022-12-04T08:55:38.580Z,2.50
2022-12-04T08:58:21.431Z,1.80
2022-12-04T09:01:08.403Z,1.85
2022-12-04T09:03:51.289Z,1.98
2022-12-04T09:06:35.484Z,1.67
2022-12-04T09:09:18.342Z,2.38
2022-12-04T09:12:01.178Z,1.60
2022-12-04T09:14:43.993Z,1.63
2022-12-04T09:17:26.859Z,1.70
2022-12-04T09:20:10.803Z,1.98
2022-12-04T09:23:04.145Z,1.67
2022-12-04T09:25:47.766Z,1.92
2022-12-04T09:28:30.622Z,1.20
2022-12-04T09:31:13.810Z,1.60
2022-12-04T09:33:59.050Z,1.58
2022-12-04T09:36:41.890Z,2.40
2022-12-04T09:39:26.314Z,1.40
2022-12-04T09:42:24.931Z,1.48
2022-12-04T09:45:13.018Z,2.10
2022-12-04T09:47:59.043Z,2.28
2022-12-04T09:50:44.475Z,1.23
2022-12-04T09:53:30.930Z,1.83
2022-12-04T09:56:19.824Z,1.80
2022-12-04T09:59:12.544Z,1.50
2022-12-04T10:01:59.855Z,1.58
2022-12-04T10:04:42.754Z,1.17
2022-12-04T10:07:29.967Z,2.28
2022-12-04T10:10:20.442Z,2.13
2022-12-04T10:13:16.533Z,2.35
2022-12-04T10:16:11.058Z,2.28
2022-12-04T10:19:04.285Z,2.60
2022-12-04T10:22:01.258Z,3.08
2022-12-04T10:24:49.119Z,1.52
2022-12-04T10:27:35.618Z,1.65
2022-12-04T10:30:23.823Z,2.10
2022-12-04T10:33:17.758Z,1.35
2022-12-04T10:36:02.488Z,1.40
2022-12-04T10:41:37.499Z,1.50
2022-12-04T10:44:21.871Z,1.35
2022-12-04T10:47:06.499Z,2.03
2022-12-04T10:52:32.185Z,1.67
2022-12-04T10:55:15.878Z,1.45
2022-12-04T10:57:58.863Z,1.10
2022-12-04T11:00:41.752Z,1.20
2022-12-04T11:03:29.414Z,1.55
2022-12-04T11:06:15.118Z,1.58
2022-12-04T11:08:59.505Z,1.92
2022-12-04T11:11:42.413Z,1.25
2022-12-04T11:14:25.526Z,1.58
2022-12-04T11:17:08.548Z,1.33
2022-12-04T11:20:00.756Z,1.02
2022-12-04T11:22:52.353Z,1.60
2022-12-04T11:25:39.501Z,1.42
2022-12-04T11:28:41.335Z,1.55
2022-12-04T11:31:25.576Z,1.42
2022-12-04T11:34:10.873Z,2.13
2022-12-04T11:36:57.591Z,1.40
2022-12-04T11:39:42.303Z,1.42
2022-12-04T11:45:21.926Z,2.70
2022-12-04T11:48:14.127Z,1.70
2022-12-04T11:51:08.533Z,1.58
2022-12-04T11:54:00.245Z,1.75
2022-12-04T11:56:48.189Z,1.98
2022-12-04T11:59:49.725Z,3.55
2022-12-04T12:02:45.389Z,2.05
2022-12-04T12:06:00.280Z,2.05
2022-12-04T12:08:59.443Z,1.95
2022-12-04T12:11:50.586Z,2.80
2022-12-04T12:14:41.081Z,2.42
2022-12-04T12:17:33.377Z,3.63
2022-12-04T12:20:22.566Z,1.95
2022-12-04T12:23:22.393Z,2.22
2022-12-04T12:26:12.383Z,2.03
2022-12-04T12:29:22.651Z,3.20
2022-12-04T12:32:25.978Z,2.10
2022-12-04T12:35:21.263Z,1.92
2022-12-04T12:38:07.787Z,2.33
2022-12-04T12:40:56.651Z,1.80
2022-12-04T12:43:42.192Z,1.75
2022-12-04T12:46:32.404Z,2.65
2022-12-04T12:49:21.242Z,2.10
2022-12-04T12:52:08.416Z,1.85
2022-12-04T12:54:57.291Z,2.45
2022-12-04T12:57:44.062Z,2.20
2022-12-04T13:00:31.425Z,2.20
2022-12-04T13:03:27.140Z,2.25
2022-12-04T13:06:15.672Z,4.13
2022-12-04T13:09:07.360Z,3.28
2022-12-04T13:11:52.631Z,2.17
2022-12-04T13:14:35.636Z,2.15
2022-12-04T13:17:26.599Z,3.35
2022-12-04T13:20:18.173Z,2.45
2022-12-04T13:23:16.096Z,2.47
2022-12-04T13:26:07.755Z,2.50
2022-12-04T13:28:58.469Z,2.42
2022-12-04T13:31:53.132Z,2.13
2022-12-04T13:34:50.144Z,2.40
2022-12-04T13:37:49.481Z,2.53
2022-12-04T13:40:36.873Z,2.13
2022-12-04T13:43:26.773Z,2.28
2022-12-04T13:46:26.806Z,2.70
2022-12-04T13:49:25.126Z,3.17
2022-12-04T13:52:23.509Z,2.33
2022-12-04T13:55:23.868Z,2.75
2022-12-04T13:58:27.351Z,2.05
2022-12-04T14:01:26.387Z,2.08
2022-12-04T14:04:23.571Z,2.72
2022-12-04T14:07:06.607Z,2.17
2022-12-04T14:09:54.389Z,2.70
2022-12-04T14:12:40.729Z,3.25
2022-12-04T14:15:26.280Z,2.33
2022-12-04T14:18:21.928Z,2.13
2022-12-04T14:21:06.772Z,2.63
2022-12-04T14:23:51.122Z,2.10
2022-12-04T14:27:03.569Z,2.30
2022-12-04T14:29:47.242Z,3.80
2022-12-04T14:32:34.693Z,3.83
2022-12-04T14:35:21.280Z,2.80
2022-12-04T14:38:06.871Z,2.35
2022-12-04T14:40:52.508Z,2.58
2022-12-04T14:43:41.072Z,1.92
2022-12-04T14:46:29.261Z,4.78
2022-12-04T14:49:24.699Z,2.53
2022-12-04T14:52:16.072Z,2.55
2022-12-04T14:55:08.076Z,2.33
2022-12-04T14:57:56.546Z,2.35
2022-12-04T15:00:51.298Z,2.28
2022-12-04T15:03:37.978Z,3.13
2022-12-04T15:06:25.465Z,1.98
2022-12-04T15:09:36.035Z,2.22
2022-12-04T15:12:36.440Z,2.60
2022-12-04T15:15:25.128Z,2.70
2022-12-04T15:18:15.804Z,2.47
2022-12-04T15:21:01.453Z,2.80
2022-12-04T15:23:44.737Z,2.35
2022-12-04T15:26:28.272Z,3.60
2022-12-04T15:29:18.802Z,2.38
2022-12-04T15:32:05.488Z,2.50
2022-12-04T15:34:54.417Z,3.25
2022-12-04T15:37:37.868Z,2.83
2022-12-04T15:40:23.154Z,1.95
2022-12-04T15:43:17.304Z,2.13
2022-12-04T15:46:00.689Z,2.73
2022-12-04T15:48:47.719Z,3.45
2022-12-04T15:51:32.564Z,4.03
2022-12-04T15:54:22.280Z,5.55
2022-12-04T15:57:07.771Z,2.72
2022-12-04T15:59:51.823Z,3.88
2022-12-04T16:02:40.623Z,3.85
2022-12-04T16:05:35.481Z,3.05
2022-12-04T16:08:26.828Z,4.30
2022-12-04T16:11:28.514Z,2.60
2022-12-04T16:14:19.177Z,2.50
2022-12-04T16:17:06.287Z,4.28
2022-12-04T16:19:49.569Z,3.85
2022-12-04T16:22:32.562Z,2.90
2022-12-04T16:25:17.891Z,2.33
2022-12-04T16:28:01.697Z,2.60
2022-12-04T16:30:44.637Z,2.57
2022-12-04T16:33:27.511Z,3.53
2022-12-04T16:36:11.649Z,3.97
2022-12-04T16:38:54.489Z,2.60
2022-12-04T16:41:38.769Z,2.97
2022-12-04T16:44:21.631Z,2.17
2022-12-04T16:47:04.630Z,4.00
2022-12-04T16:49:50.259Z,2.95
2022-12-04T16:52:33.123Z,3.90
2022-12-04T16:55:20.560Z,3.22
2022-12-04T16:58:05.418Z,4.68
2022-12-04T17:00:54.433Z,3.83
2022-12-04T17:03:37.382Z,2.92
2022-12-04T17:06:20.390Z,3.70
2022-12-04T17:09:03.244Z,4.38
2022-12-04T17:11:46.667Z,4.10
2022-12-04T17:14:30.908Z,3.50
2022-12-04T17:17:13.771Z,3.33
2022-12-04T17:19:56.613Z,3.65
2022-12-04T17:22:39.554Z,3.58
2022-12-04T17:25:22.478Z,3.95
2022-12-04T17:28:05.607Z,4.20
2022-12-04T17:30:49.835Z,8.90
2022-12-04T17:33:33.302Z,4.35
2022-12-04T17:36:18.970Z,4.43
2022-12-04T17:39:02.594Z,4.90
2022-12-04T17:41:45.473Z,4.45
2022-12-04T17:44:28.426Z,5.57
2022-12-04T17:47:13.295Z,4.43
2022-12-04T17:49:56.158Z,3.47
2022-12-04T17:52:39.060Z,5.38
2022-12-04T17:55:21.928Z,3.63
2022-12-04T17:58:04.798Z,3.20
2022-12-04T18:00:47.714Z,4.03
2022-12-04T18:03:32.112Z,3.67
2022-12-04T18:06:17.753Z,3.45
2022-12-04T18:09:00.659Z,5.40
2022-12-04T18:11:45.896Z,4.68
2022-12-04T18:14:29.863Z,4.47
2022-12-04T18:17:12.703Z,3.58
2022-12-04T18:20:02.673Z,4.70
2022-12-04T18:22:47.324Z,4.75
2022-12-04T18:25:30.194Z,3.42
2022-12-04T18:28:13.052Z,3.50
2022-12-04T18:30:55.953Z,2.75
2022-12-04T18:33:40.687Z,2.85
2022-12-04T18:41:55.978Z,3.35
2022-12-04T18:44:38.902Z,7.13
2022-12-04T18:47:21.733Z,3.80
2022-12-04T18:50:04.746Z,4.15
2022-12-04T18:52:54.955Z,3.75
2022-12-04T18:55:40.722Z,5.30
2022-12-04T18:58:23.874Z,4.05
2022-12-04T19:01:07.683Z,3.60
2022-12-04T19:03:50.607Z,3.90
2022-12-04T19:06:35.609Z,3.47
2022-12-04T19:09:35.393Z,3.97
2022-12-04T19:12:25.235Z,3.45
2022-12-04T19:15:08.794Z,3.25
2022-12-04T19:17:51.671Z,3.13
2022-12-04T19:20:34.526Z,3.90
2022-12-04T19:23:17.426Z,3.33
2022-12-04T19:26:02.546Z,3.08
2022-12-04T19:28:45.435Z,2.80
2022-12-04T19:31:30.014Z,4.35
2022-12-04T19:34:12.905Z,3.80
2022-12-04T19:36:56.037Z,3.00
2022-12-04T19:39:39.077Z,3.53
2022-12-04T19:42:23.358Z,3.30
2022-12-04T19:45:06.929Z,4.18
2022-12-04T19:47:49.789Z,3.45
2022-12-04T19:50:33.610Z,3.25
2022-12-04T19:53:16.693Z,3.60
2022-12-04T19:56:03.586Z,3.55
2022-12-04T19:58:48.441Z,4.05
2022-12-04T20:01:32.386Z,3.90
2022-12-04T20:04:15.627Z,4.15
2022-12-04T20:06:58.755Z,4.00
2022-12-04T20:09:42.526Z,3.80
2022-12-04T20:12:27.859Z,4.20
2022-12-04T20:15:12.175Z,3.25
2022-12-04T20:17:55.114Z,3.92
2022-12-04T20:20:37.988Z,3.53
2022-12-04T20:23:20.844Z,3.58
2022-12-04T20:26:05.067Z,3.70
2022-12-04T20:28:48.244Z,4.32
2022-12-04T20:31:34.946Z,3.58
2022-12-04T20:34:19.738Z,3.40
2022-12-04T20:37:02.581Z,3.30
2022-12-04T20:39:45.555Z,3.40
2022-12-04T20:42:33.278Z,3.75
2022-12-04T20:45:16.617Z,3.15
2022-12-04T20:48:00.820Z,3.58
2022-12-04T20:50:45.989Z,3.25
2022-12-04T20:53:30.245Z,3.80
2022-12-04T20:56:13.116Z,3.65
2022-12-04T20:58:57.545Z,2.70
2022-12-04T21:01:40.833Z,2.92
2022-12-04T21:04:25.254Z,2.53
2022-12-04T21:07:08.388Z,2.88
2022-12-04T21:09:51.301Z,2.83
2022-12-04T21:12:52.259Z,2.50
2022-12-04T21:15:54.118Z,3.28
2022-12-04T21:18:37.840Z,2.70
2022-12-04T21:21:22.191Z,3.22
2022-12-04T21:24:06.335Z,2.50
2022-12-04T21:26:49.528Z,2.85
2022-12-04T21:29:32.581Z,2.55
2022-12-04T21:32:15.501Z,1.90
2022-12-04T21:34:58.428Z,1.60
2022-12-04T21:37:42.656Z,1.73
2022-12-04T21:40:25.485Z,1.80
2022-12-04T21:43:08.352Z,3.33
2022-12-04T21:45:58.141Z,3.15
2022-12-04T21:48:41.147Z,2.75
2022-12-04T21:51:48.726Z,2.60
2022-12-04T21:54:28.817Z,2.50
2022-12-04T21:57:12.029Z,2.63
2022-12-04T21:59:55.230Z,2.95
2022-12-04T22:02:39.952Z,2.30
2022-12-04T22:08:07.121Z,2.03
2022-12-04T22:10:51.367Z,3.45
2022-12-04T22:13:34.601Z,3.30
2022-12-04T22:16:19.831Z,3.28
2022-12-04T22:19:02.741Z,3.47
2022-12-04T22:21:45.644Z,3.65
2022-12-04T22:24:28.557Z,3.53
2022-12-04T22:27:14.971Z,4.70
2022-12-04T22:29:57.868Z,4.70
2022-12-04T22:32:40.800Z,4.60
2022-12-04T22:35:23.909Z,4.72
2022-12-04T22:38:06.783Z,4.68
2022-12-04T22:40:49.862Z,3.90
2022-12-04T22:43:40.550Z,4.00
2022-12-04T22:46:23.860Z,4.15
2022-12-04T22:49:07.291Z,5.38
2022-12-04T22:51:50.149Z,5.15
2022-12-04T22:54:33.122Z,4.32
2022-12-04T22:57:16.456Z,4.13
2022-12-04T23:00:00.648Z,3.78
2022-12-04T23:02:43.579Z,4.78
2022-12-04T23:05:26.564Z,4.22
2022-12-04T23:08:10.009Z,4.35
2022-12-04T23:10:52.971Z,8.40
2022-12-04T23:13:36.316Z,6.65
2022-12-04T23:16:21.203Z,6.43
2022-12-04T23:19:05.311Z,5.97
2022-12-04T23:21:53.555Z,6.15
2022-12-04T23:24:41.370Z,7.15
2022-12-04T23:30:08.245Z,9.00
2022-12-04T23:32:52.656Z,9.85
2022-12-04T23:35:35.480Z,12.50
2022-12-04T23:38:18.497Z,10.40
2022-12-04T23:41:02.105Z,9.57
2022-12-04T23:43:45.811Z,11.07
2022-12-04T23:46:32.289Z,15.52
2022-12-04T23:49:16.631Z,12.55
2022-12-04T23:51:59.498Z,17.08
2022-12-04T23:54:42.360Z,12.25
2022-12-04T23:57:25.206Z,9.23
